Time;durP1;ratioP1;P1;durP2;ratioP2;P2;SDS_P1;SDS_P2;PMS_P1;PMS_P2;Temp;Humidity;BMP_temperature;BMP_pressure;BME280_temperature;BME280_humidity;BME280_pressure;Samples;Min_cycle;Max_cycle;Signal;HPM_P1;HPM_P2
2021/06/12 00:01:42;;;;;;;28.23;15.70;;;;;;;;;;1918010;75;20072;-82
2021/06/12 00:04:07;;;;;;;22.33;17.08;;;;;;;;;;1917688;75;20119;-83
2021/06/12 00:06:33;;;;;;;23.15;15.70;;;;;;;;;;1915565;75;20430;-83
2021/06/12 00:08:58;;;;;;;23.85;15.70;;;;;;;;;;1918361;75;20076;-83
2021/06/12 00:11:24;;;;;;;26.75;16.17;;;;;;;;;;1918292;75;20110;-82
2021/06/12 00:13:50;;;;;;;22.25;15.18;;;;;;;;;;1915396;75;20086;-84
2021/06/12 00:16:15;;;;;;;23.25;16.45;;;;;;;;;;1924028;67;20503;-84
2021/06/12 00:18:41;;;;;;;21.42;15.27;;;;;;;;;;1915387;75;20078;-85
2021/06/12 00:21:06;;;;;;;24.02;14.55;;;;;;;;;;1915292;75;20083;-83
2021/06/12 00:23:32;;;;;;;26.42;14.98;;;;;;;;;;1918446;75;20075;-84
2021/06/12 00:25:57;;;;;;;23.50;14.05;;;;;;;;;;1918594;75;20406;-83
2021/06/12 00:28:22;;;;;;;24.75;15.25;;;;;;;;;;1918610;75;20090;-82
2021/06/12 00:30:48;;;;;;;21.48;14.57;;;;;;;;;;1915391;75;20131;-83
2021/06/12 00:33:13;;;;;;;21.58;13.63;;;;;;;;;;1918373;75;20076;-83
2021/06/12 00:35:39;;;;;;;19.95;13.52;;;;;;;;;;1918276;75;20090;-83
2021/06/12 00:38:04;;;;;;;20.65;13.40;;;;;;;;;;1918096;75;20084;-83
2021/06/12 00:40:30;;;;;;;19.65;13.77;;;;;;;;;;1915474;75;20135;-84
2021/06/12 00:42:55;;;;;;;18.75;13.07;;;;;;;;;;1918882;75;20504;-83
2021/06/12 00:45:23;;;;;;;18.80;12.80;;;;;;;;;;1916518;75;20084;-83
2021/06/12 00:47:51;;;;;;;22.10;13.05;;;;;;;;;;1917185;75;20094;-84
2021/06/12 00:50:18;;;;;;;19.73;12.80;;;;;;;;;;1918839;75;20110;-82
2021/06/12 00:52:44;;;;;;;17.80;12.50;;;;;;;;;;1918540;75;20079;-84
2021/06/12 00:55:12;;;;;;;20.38;12.68;;;;;;;;;;1918453;75;20084;-83
2021/06/12 00:57:38;;;;;;;21.27;12.07;;;;;;;;;;1918543;75;20076;-84
2021/06/12 01:00:07;;;;;;;17.88;12.40;;;;;;;;;;1918494;75;20075;-83
2021/06/12 01:02:34;;;;;;;20.48;12.63;;;;;;;;;;1918288;75;20071;-83
2021/06/12 01:04:59;;;;;;;19.23;12.25;;;;;;;;;;1919077;75;20095;-84
2021/06/12 01:07:24;;;;;;;59.40;16.02;;;;;;;;;;1918794;75;20087;-82
2021/06/12 01:09:50;;;;;;;24.05;13.15;;;;;;;;;;1918046;75;20113;-83
2021/06/12 01:12:42;;;;;;;19.58;13.32;;;;;;;;;;1917891;75;20072;-83
2021/06/12 01:15:10;;;;;;;24.10;13.60;;;;;;;;;;1923466;67;20080;-82
2021/06/12 01:17:46;;;;;;;20.42;12.95;;;;;;;;;;1918121;75;20155;-84
2021/06/12 01:20:11;;;;;;;21.92;12.73;;;;;;;;;;1917901;75;20477;-83
2021/06/12 01:22:45;;;;;;;24.27;12.98;;;;;;;;;;1917617;75;20148;-82
2021/06/12 01:25:45;;;;;;;18.83;12.07;;;;;;;;;;1917797;75;20091;-85
2021/06/12 01:28:52;;;;;;;19.38;12.73;;;;;;;;;;1917439;75;20131;-81
2021/06/12 01:31:19;;;;;;;21.42;12.82;;;;;;;;;;1917535;75;20091;-82
2021/06/12 01:33:47;;;;;;;20.60;12.27;;;;;;;;;;1917346;75;20095;-83
2021/06/12 01:36:14;;;;;;;19.20;12.13;;;;;;;;;;1914282;75;20091;-83
2021/06/12 01:38:45;;;;;;;21.73;13.05;;;;;;;;;;1917765;75;20499;-81
2021/06/12 01:41:14;;;;;;;21.13;13.00;;;;;;;;;;1917552;75;20110;-83
2021/06/12 01:43:42;;;;;;;21.75;13.25;;;;;;;;;;1917909;75;20151;-83
2021/06/12 01:46:11;;;;;;;22.85;12.75;;;;;;;;;;1917626;75;20083;-81
2021/06/12 01:48:39;;;;;;;24.20;12.85;;;;;;;;;;1917608;75;20430;-83
2021/06/12 01:51:05;;;;;;;22.73;13.45;;;;;;;;;;1917688;75;20106;-82
2021/06/12 01:53:31;;;;;;;19.65;13.27;;;;;;;;;;1917912;75;20083;-82
2021/06/12 01:56:00;;;;;;;26.55;13.52;;;;;;;;;;1917643;75;20094;-83
2021/06/12 01:58:26;;;;;;;20.55;13.80;;;;;;;;;;1917768;75;20395;-83
2021/06/12 02:00:53;;;;;;;26.00;12.40;;;;;;;;;;1917615;75;20079;-83
2021/06/12 02:03:19;;;;;;;21.73;13.45;;;;;;;;;;1917712;75;20076;-83
2021/06/12 02:05:45;;;;;;;22.35;12.95;;;;;;;;;;1917893;75;20076;-83
2021/06/12 02:08:14;;;;;;;20.80;13.18;;;;;;;;;;1917991;75;20076;-83
2021/06/12 02:10:41;;;;;;;21.50;13.23;;;;;;;;;;1917753;75;20080;-81
2021/06/12 02:13:08;;;;;;;24.75;13.18;;;;;;;;;;1918094;75;20075;-82
2021/06/12 02:15:34;;;;;;;20.77;13.40;;;;;;;;;;1923551;67;20387;-82
2021/06/12 02:18:03;;;;;;;19.90;13.45;;;;;;;;;;1918132;75;20087;-83
2021/06/12 02:20:30;;;;;;;21.08;13.95;;;;;;;;;;1918170;75;20076;-83
2021/06/12 02:22:56;;;;;;;22.58;13.95;;;;;;;;;;1918033;75;20072;-83
2021/06/12 02:25:22;;;;;;;22.40;13.63;;;;;;;;;;1918301;75;20091;-83
2021/06/12 02:27:54;;;;;;;21.25;13.38;;;;;;;;;;1918081;75;20173;-84
2021/06/12 02:30:23;;;;;;;22.30;13.65;;;;;;;;;;1918141;75;20099;-84
2021/06/12 02:32:53;;;;;;;28.42;15.60;;;;;;;;;;1918257;75;20083;-83
2021/06/12 02:35:18;;;;;;;23.40;14.48;;;;;;;;;;1915368;75;20079;-83
2021/06/12 02:37:45;;;;;;;26.67;14.15;;;;;;;;;;1915207;75;20182;-83
2021/06/12 02:40:11;;;;;;;23.73;14.70;;;;;;;;;;1917969;75;20432;-81
2021/06/12 02:42:37;;;;;;;25.88;14.20;;;;;;;;;;1917744;75;20080;-81
2021/06/12 02:45:07;;;;;;;22.65;14.80;;;;;;;;;;1917789;75;20090;-83
2021/06/12 02:47:39;;;;;;;19.77;14.07;;;;;;;;;;1918361;75;20088;-83
2021/06/12 02:50:06;;;;;;;23.27;13.90;;;;;;;;;;1918590;75;20102;-83
2021/06/12 02:52:34;;;;;;;26.40;14.57;;;;;;;;;;1916375;75;20479;-83
2021/06/12 02:55:04;;;;;;;23.05;14.00;;;;;;;;;;1918013;75;20552;-83
2021/06/12 02:57:32;;;;;;;22.08;14.20;;;;;;;;;;1917895;75;20079;-82
2021/06/12 02:59:59;;;;;;;25.70;14.55;;;;;;;;;;1918232;75;20075;-83
2021/06/12 03:02:24;;;;;;;25.77;14.27;;;;;;;;;;1915291;75;20078;-82
2021/06/12 03:04:51;;;;;;;34.65;15.50;;;;;;;;;;1915112;75;20080;-83
2021/06/12 03:07:19;;;;;;;24.88;15.63;;;;;;;;;;1917910;75;20136;-83
2021/06/12 03:09:45;;;;;;;29.05;16.42;;;;;;;;;;1918092;75;20123;-84
2021/06/12 03:12:11;;;;;;;26.10;16.02;;;;;;;;;;1917933;75;20085;-83
2021/06/12 03:14:39;;;;;;;24.63;15.38;;;;;;;;;;1914885;75;20076;-82
2021/06/12 03:17:06;;;;;;;24.08;15.65;;;;;;;;;;1917759;75;20113;-82
2021/06/12 03:19:31;;;;;;;28.50;16.65;;;;;;;;;;1914852;75;20102;-83
2021/06/12 03:21:58;;;;;;;26.88;15.95;;;;;;;;;;1918609;75;20064;-83
2021/06/12 03:24:25;;;;;;;26.50;15.95;;;;;;;;;;1915223;75;20088;-82
2021/06/12 03:26:51;;;;;;;27.98;16.50;;;;;;;;;;1917752;75;20086;-83
2021/06/12 03:29:16;;;;;;;26.23;15.18;;;;;;;;;;1917554;75;20076;-82
2021/06/12 03:31:42;;;;;;;28.02;16.58;;;;;;;;;;1917405;75;20091;-83
2021/06/12 03:34:08;;;;;;;28.58;15.80;;;;;;;;;;1914639;75;20080;-83
2021/06/12 03:36:33;;;;;;;24.33;16.10;;;;;;;;;;1917761;75;20137;-82
2021/06/12 03:38:59;;;;;;;29.08;17.05;;;;;;;;;;1917854;75;20116;-83
2021/06/12 03:41:25;;;;;;;29.33;17.10;;;;;;;;;;1915194;75;20091;-84
2021/06/12 03:43:51;;;;;;;27.88;17.10;;;;;;;;;;1917752;75;20153;-84
2021/06/12 03:46:18;;;;;;;32.47;18.17;;;;;;;;;;1917675;75;20495;-83
2021/06/12 03:48:45;;;;;;;29.65;17.63;;;;;;;;;;1917976;75;20076;-83
2021/06/12 03:51:13;;;;;;;29.65;18.02;;;;;;;;;;1918159;75;20088;-84
2021/06/12 03:53:47;;;;;;;38.88;18.05;;;;;;;;;;1917905;75;20076;-83
2021/06/12 03:56:15;;;;;;;29.48;17.70;;;;;;;;;;1915103;75;20080;-82
2021/06/12 03:58:42;;;;;;;30.23;18.30;;;;;;;;;;1917987;75;20449;-84
2021/06/12 04:01:11;;;;;;;31.55;18.27;;;;;;;;;;1918311;75;20091;-84
2021/06/12 04:03:36;;;;;;;32.33;17.77;;;;;;;;;;1918449;75;20140;-83
2021/06/12 04:06:02;;;;;;;31.02;17.98;;;;;;;;;;1915329;75;20123;-83
2021/06/12 04:08:27;;;;;;;25.33;17.10;;;;;;;;;;1918646;75;20076;-84
2021/06/12 04:10:52;;;;;;;29.30;19.27;;;;;;;;;;1918425;75;20084;-81
2021/06/12 04:13:18;;;;;;;29.27;17.73;;;;;;;;;;1918368;75;20080;-83
2021/06/12 04:15:43;;;;;;;33.42;18.67;;;;;;;;;;1918364;67;20115;-83
2021/06/12 04:18:09;;;;;;;30.48;18.55;;;;;;;;;;1915507;75;20097;-82
2021/06/12 04:20:39;;;;;;;28.27;19.17;;;;;;;;;;1917974;75;20087;-84
2021/06/12 04:23:05;;;;;;;30.73;18.58;;;;;;;;;;1915822;75;20083;-83
2021/06/12 04:25:31;;;;;;;31.92;18.80;;;;;;;;;;1918513;75;20090;-83
2021/06/12 04:27:56;;;;;;;30.88;19.02;;;;;;;;;;1917919;75;20086;-83
2021/06/12 04:30:22;;;;;;;30.17;19.08;;;;;;;;;;1918201;75;20080;-83
2021/06/12 04:32:48;;;;;;;30.50;19.88;;;;;;;;;;1915146;75;20576;-85
2021/06/12 04:35:15;;;;;;;32.15;19.00;;;;;;;;;;1918283;75;20177;-84
2021/06/12 04:37:42;;;;;;;30.58;18.20;;;;;;;;;;1918151;75;20084;-84
2021/06/12 04:40:09;;;;;;;27.38;17.15;;;;;;;;;;1918191;75;20075;-83
2021/06/12 04:42:34;;;;;;;29.75;18.45;;;;;;;;;;1918219;75;20080;-83
2021/06/12 04:45:00;;;;;;;32.15;19.65;;;;;;;;;;1919110;75;20161;-83
2021/06/12 04:47:25;;;;;;;28.90;18.33;;;;;;;;;;1918990;75;20084;-84
2021/06/12 04:49:51;;;;;;;27.50;18.23;;;;;;;;;;1918682;75;20097;-82
2021/06/12 04:52:16;;;;;;;27.27;17.73;;;;;;;;;;1917960;75;20072;-83
2021/06/12 04:54:42;;;;;;;30.20;18.23;;;;;;;;;;1918478;75;20445;-83
2021/06/12 04:57:07;;;;;;;28.17;16.52;;;;;;;;;;1919852;75;20076;-82
2021/06/12 04:59:32;;;;;;;29.63;16.88;;;;;;;;;;1918699;75;20133;-82
2021/06/12 05:01:58;;;;;;;27.40;17.20;;;;;;;;;;1918576;75;20072;-81
2021/06/12 05:04:23;;;;;;;27.42;17.58;;;;;;;;;;1918302;75;20088;-83
2021/06/12 05:06:48;;;;;;;29.55;17.55;;;;;;;;;;1918179;75;20087;-83
2021/06/12 05:09:14;;;;;;;26.40;16.90;;;;;;;;;;1918042;75;20189;-84
2021/06/12 05:11:39;;;;;;;26.17;16.63;;;;;;;;;;1918281;75;20111;-83
2021/06/12 05:14:04;;;;;;;24.92;15.85;;;;;;;;;;1918284;75;20076;-82
2021/06/12 05:16:33;;;;;;;25.10;15.70;;;;;;;;;;1921832;67;20141;-82
2021/06/12 05:18:58;;;;;;;26.13;16.85;;;;;;;;;;1915283;75;20080;-82
2021/06/12 05:21:24;;;;;;;25.80;16.33;;;;;;;;;;1915221;75;20076;-82
2021/06/12 05:23:49;;;;;;;22.60;15.13;;;;;;;;;;1915214;75;20399;-81
2021/06/12 05:26:14;;;;;;;24.00;15.88;;;;;;;;;;1916545;75;20186;-82
2021/06/12 05:28:40;;;;;;;25.33;16.42;;;;;;;;;;1912853;75;20083;-83
2021/06/12 05:31:06;;;;;;;25.80;15.18;;;;;;;;;;1915566;75;20088;-81
2021/06/12 05:33:33;;;;;;;23.25;14.32;;;;;;;;;;1915319;75;20083;-81
2021/06/12 05:35:59;;;;;;;22.08;15.63;;;;;;;;;;1914705;75;20087;-81
2021/06/12 05:38:25;;;;;;;24.88;15.10;;;;;;;;;;1911912;75;20084;-82
2021/06/12 05:40:51;;;;;;;24.00;15.23;;;;;;;;;;1914995;75;20425;-82
2021/06/12 05:43:17;;;;;;;33.30;16.00;;;;;;;;;;1911756;75;20170;-81
2021/06/12 05:45:43;;;;;;;29.58;15.50;;;;;;;;;;1915034;75;20420;-83
2021/06/12 05:48:09;;;;;;;22.45;15.30;;;;;;;;;;1911721;75;20084;-81
2021/06/12 05:50:34;;;;;;;25.15;16.67;;;;;;;;;;1914685;75;20510;-82
2021/06/12 05:52:59;;;;;;;30.42;15.27;;;;;;;;;;1914261;75;20086;-82
2021/06/12 05:55:25;;;;;;;34.15;16.30;;;;;;;;;;1911663;75;20088;-82
2021/06/12 05:57:50;;;;;;;23.77;15.85;;;;;;;;;;1911597;75;20399;-81
2021/06/12 06:00:16;;;;;;;26.15;16.98;;;;;;;;;;1915549;75;20119;-82
2021/06/12 06:02:41;;;;;;;23.27;15.95;;;;;;;;;;1912668;75;20083;-82
2021/06/12 06:05:07;;;;;;;23.00;16.10;;;;;;;;;;1914621;75;20084;-82
2021/06/12 06:07:32;;;;;;;21.80;15.90;;;;;;;;;;1914987;75;20083;-81
2021/06/12 06:09:58;;;;;;;25.58;15.88;;;;;;;;;;1915052;75;20114;-81
2021/06/12 06:12:23;;;;;;;27.90;16.55;;;;;;;;;;1914931;75;20105;-81
2021/06/12 06:14:48;;;;;;;29.73;16.67;;;;;;;;;;1922827;67;20075;-81
2021/06/12 06:17:14;;;;;;;27.85;16.77;;;;;;;;;;1915172;75;20516;-82
2021/06/12 06:19:41;;;;;;;24.77;17.45;;;;;;;;;;1911729;75;20088;-81
2021/06/12 06:22:06;;;;;;;36.22;18.85;;;;;;;;;;1915381;75;20079;-81
2021/06/12 06:24:31;;;;;;;26.77;19.00;;;;;;;;;;1915061;75;20094;-81
2021/06/12 06:26:57;;;;;;;26.52;18.58;;;;;;;;;;1915093;75;20141;-80
2021/06/12 06:29:22;;;;;;;30.05;18.35;;;;;;;;;;1915118;75;20076;-82
2021/06/12 06:31:48;;;;;;;26.98;18.35;;;;;;;;;;1915147;75;20080;-82
2021/06/12 06:34:13;;;;;;;30.20;19.58;;;;;;;;;;1914155;75;20080;-78
2021/06/12 06:36:39;;;;;;;30.60;20.05;;;;;;;;;;1913977;75;20136;-78
2021/06/12 06:39:05;;;;;;;34.63;20.10;;;;;;;;;;1913841;75;20524;-78
2021/06/12 06:41:31;;;;;;;36.90;21.00;;;;;;;;;;1913888;75;20154;-78
2021/06/12 06:43:56;;;;;;;32.38;20.08;;;;;;;;;;1914234;75;20499;-78
2021/06/12 06:46:22;;;;;;;31.50;20.30;;;;;;;;;;1914111;75;20080;-79
2021/06/12 06:48:47;;;;;;;33.83;22.27;;;;;;;;;;1911174;75;20523;-77
2021/06/12 06:51:13;;;;;;;29.80;21.17;;;;;;;;;;1914166;75;20091;-78
2021/06/12 06:53:38;;;;;;;32.55;20.70;;;;;;;;;;1914012;75;20084;-78
2021/06/12 06:56:05;;;;;;;29.23;19.73;;;;;;;;;;1914049;75;20110;-78
2021/06/12 06:58:31;;;;;;;31.75;20.38;;;;;;;;;;1914211;75;20145;-79
2021/06/12 07:00:57;;;;;;;31.30;20.75;;;;;;;;;;1914355;75;20079;-78
2021/06/12 07:03:22;;;;;;;33.10;20.60;;;;;;;;;;1914615;75;20131;-79
2021/06/12 07:05:47;;;;;;;29.17;20.38;;;;;;;;;;1915475;75;20084;-79
2021/06/12 07:08:13;;;;;;;29.00;19.40;;;;;;;;;;1915263;75;20076;-78
2021/06/12 07:10:39;;;;;;;32.60;20.92;;;;;;;;;;1914569;75;20111;-78
2021/06/12 07:13:04;;;;;;;33.97;19.83;;;;;;;;;;1911632;75;20143;-78
2021/06/12 07:15:30;;;;;;;32.85;19.52;;;;;;;;;;1919844;67;20079;-78
2021/06/12 07:17:55;;;;;;;30.27;20.00;;;;;;;;;;1914356;75;20131;-78
2021/06/12 07:20:22;;;;;;;29.75;19.30;;;;;;;;;;1913755;75;20083;-78
2021/06/12 07:22:48;;;;;;;25.80;18.92;;;;;;;;;;1911135;75;20426;-78
2021/06/12 07:25:14;;;;;;;29.20;19.52;;;;;;;;;;1913927;75;20072;-78
2021/06/12 07:27:39;;;;;;;26.33;19.38;;;;;;;;;;1913955;75;20080;-79
2021/06/12 07:30:05;;;;;;;29.08;18.90;;;;;;;;;;1914176;75;20141;-77
2021/06/12 07:32:31;;;;;;;24.17;19.08;;;;;;;;;;1914307;75;20098;-78
2021/06/12 07:34:56;;;;;;;25.50;18.35;;;;;;;;;;1914060;75;20079;-78
2021/06/12 07:37:22;;;;;;;27.30;18.52;;;;;;;;;;1915114;75;20147;-78
2021/06/12 07:39:47;;;;;;;24.13;17.30;;;;;;;;;;1914861;75;20092;-78
2021/06/12 07:42:12;;;;;;;24.42;17.35;;;;;;;;;;1910928;75;20518;-77
2021/06/12 07:44:38;;;;;;;26.05;16.80;;;;;;;;;;1913612;75;20084;-78
2021/06/12 07:47:03;;;;;;;24.50;17.27;;;;;;;;;;1910711;75;20201;-78
2021/06/12 07:49:30;;;;;;;22.88;16.75;;;;;;;;;;1910580;75;20083;-78
2021/06/12 07:51:55;;;;;;;20.45;16.92;;;;;;;;;;1913865;75;20088;-78
2021/06/12 07:54:20;;;;;;;23.55;16.20;;;;;;;;;;1913654;75;20144;-78
2021/06/12 07:56:46;;;;;;;23.20;17.38;;;;;;;;;;1910779;75;20091;-77
2021/06/12 07:59:11;;;;;;;26.80;16.50;;;;;;;;;;1913662;75;20144;-79
2021/06/12 08:01:37;;;;;;;27.42;17.13;;;;;;;;;;1913473;75;20079;-77
2021/06/12 08:04:02;;;;;;;33.47;15.90;;;;;;;;;;1914787;75;20090;-81
2021/06/12 08:06:29;;;;;;;27.02;16.05;;;;;;;;;;1911889;75;20091;-81
2021/06/12 08:08:54;;;;;;;20.10;15.18;;;;;;;;;;1915067;75;20071;-83
2021/06/12 08:11:19;;;;;;;20.52;14.65;;;;;;;;;;1915493;75;20082;-82
2021/06/12 08:13:45;;;;;;;21.33;15.07;;;;;;;;;;1915118;75;20076;-82
2021/06/12 08:16:10;;;;;;;21.60;14.90;;;;;;;;;;1914438;75;20091;-81
2021/06/12 08:18:36;;;;;;;22.50;14.40;;;;;;;;;;1915090;75;20086;-82
2021/06/12 08:21:02;;;;;;;18.75;13.40;;;;;;;;;;1915307;75;20387;-82
2021/06/12 08:23:27;;;;;;;18.92;13.32;;;;;;;;;;1916005;75;20095;-83
2021/06/12 08:25:53;;;;;;;27.23;13.80;;;;;;;;;;1916082;75;20495;-83
2021/06/12 08:28:19;;;;;;;20.30;14.20;;;;;;;;;;1913336;75;20079;-82
2021/06/12 08:30:44;;;;;;;25.60;14.40;;;;;;;;;;1915672;75;20090;-82
2021/06/12 08:33:11;;;;;;;25.27;13.63;;;;;;;;;;1915770;75;20079;-78
2021/06/12 08:35:38;;;;;;;28.17;13.38;;;;;;;;;;1910664;75;20139;-77
2021/06/12 08:38:03;;;;;;;18.60;13.40;;;;;;;;;;1910591;75;20076;-77
2021/06/12 08:40:29;;;;;;;25.83;13.23;;;;;;;;;;1913130;75;20137;-77
2021/06/12 08:42:55;;;;;;;20.33;11.77;;;;;;;;;;1913125;75;20130;-78
2021/06/12 08:45:25;;;;;;;15.80;12.40;;;;;;;;;;1910609;75;20092;-77
2021/06/12 08:47:51;;;;;;;18.95;10.18;;;;;;;;;;1910313;75;20107;-77
2021/06/12 08:50:19;;;;;;;10.48;6.72;;;;;;;;;;1913192;75;20083;-77
2021/06/12 08:52:45;;;;;;;12.65;6.75;;;;;;;;;;1913562;75;20128;-78
2021/06/12 08:55:12;;;;;;;10.05;6.45;;;;;;;;;;1913332;75;20099;-77
2021/06/12 08:57:38;;;;;;;13.25;6.15;;;;;;;;;;1910017;75;20084;-77
2021/06/12 09:00:05;;;;;;;7.13;5.40;;;;;;;;;;1912980;75;20090;-77
2021/06/12 09:03:11;;;;;;;9.13;5.00;;;;;;;;;;1913182;75;20087;-77
2021/06/12 09:05:54;;;;;;;13.32;5.10;;;;;;;;;;1909373;75;20092;-77
2021/06/12 09:08:31;;;;;;;6.75;4.70;;;;;;;;;;1913980;75;20403;-77
2021/06/12 09:11:14;;;;;;;12.15;5.60;;;;;;;;;;1910901;75;20514;-78
2021/06/12 09:14:01;;;;;;;7.78;4.88;;;;;;;;;;1911414;75;20084;-77
2021/06/12 09:16:41;;;;;;;7.13;4.95;;;;;;;;;;1913914;75;20080;-76
2021/06/12 09:19:13;;;;;;;8.98;4.28;;;;;;;;;;1913486;75;20080;-79
2021/06/12 09:21:47;;;;;;;10.45;4.70;;;;;;;;;;1914585;75;20091;-77
2021/06/12 09:24:25;;;;;;;13.95;4.10;;;;;;;;;;1913327;75;20080;-76
2021/06/12 09:26:58;;;;;;;10.15;3.55;;;;;;;;;;1910554;75;20530;-81
2021/06/12 09:29:34;;;;;;;;;;;;;;;;;;1910997;75;20083;-77
2021/06/12 09:32:00;;;;;;;8.77;4.53;;;;;;;;;;1910516;75;19952;-77
2021/06/12 09:34:26;;;;;;;7.90;3.97;;;;;;;;;;1912770;75;20091;-78
2021/06/12 09:36:52;;;;;;;4.30;3.45;;;;;;;;;;1913678;75;20102;-78
2021/06/12 09:39:23;;;;;;;10.05;4.20;;;;;;;;;;1913019;75;20076;-78
2021/06/12 09:41:51;;;;;;;5.38;3.60;;;;;;;;;;1913237;75;20119;-76
2021/06/12 09:44:39;;;;;;;8.68;4.28;;;;;;;;;;1913056;75;20080;-76
2021/06/12 09:47:26;;;;;;;8.50;4.03;;;;;;;;;;1913067;75;20084;-79
2021/06/12 09:49:59;;;;;;;7.63;3.20;;;;;;;;;;1913344;75;20092;-78
2021/06/12 09:52:24;;;;;;;9.45;3.88;;;;;;;;;;1910791;75;20080;-78
2021/06/12 09:54:51;;;;;;;7.72;3.60;;;;;;;;;;1913385;75;20216;-78
2021/06/12 09:57:20;;;;;;;8.32;3.88;;;;;;;;;;1913908;75;20128;-78
2021/06/12 09:59:54;;;;;;;6.50;3.75;;;;;;;;;;1914002;75;20087;-78
2021/06/12 10:02:44;;;;;;;9.50;3.60;;;;;;;;;;1914112;75;20079;-79
2021/06/12 10:05:15;;;;;;;10.82;3.75;;;;;;;;;;1913895;75;20500;-78
2021/06/12 10:07:42;;;;;;;8.18;3.30;;;;;;;;;;1910654;75;20088;-77
2021/06/12 10:10:11;;;;;;;9.85;3.35;;;;;;;;;;1913746;75;20117;-77
2021/06/12 10:12:37;;;;;;;6.25;2.60;;;;;;;;;;1914062;75;20404;-80
2021/06/12 10:15:07;;;;;;;5.78;2.28;;;;;;;;;;1913776;75;20079;-78
2021/06/12 10:17:38;;;;;;;5.47;2.78;;;;;;;;;;1913832;75;20079;-79
2021/06/12 10:20:04;;;;;;;7.90;2.30;;;;;;;;;;1913992;75;20083;-78
2021/06/12 10:22:30;;;;;;;7.55;2.42;;;;;;;;;;1913797;75;20137;-78
2021/06/12 10:24:56;;;;;;;8.93;2.20;;;;;;;;;;1911432;75;20083;-80
2021/06/12 10:27:23;;;;;;;4.28;2.30;;;;;;;;;;1913868;75;20091;-79
2021/06/12 10:29:48;;;;;;;9.13;2.67;;;;;;;;;;1913331;75;20507;-79
2021/06/12 10:32:16;;;;;;;9.70;2.33;;;;;;;;;;1913600;75;20086;-78
2021/06/12 10:34:42;;;;;;;6.57;2.42;;;;;;;;;;1910372;75;20079;-78
2021/06/12 10:37:10;;;;;;;6.88;2.35;;;;;;;;;;1910714;75;20129;-78
2021/06/12 10:39:40;;;;;;;8.63;2.45;;;;;;;;;;1910223;75;20076;-77
2021/06/12 10:42:20;;;;;;;6.63;2.38;;;;;;;;;;1913101;75;20088;-78
2021/06/12 10:44:49;;;;;;;6.40;2.72;;;;;;;;;;1913513;75;20087;-79
2021/06/12 10:47:37;;;;;;;5.15;2.80;;;;;;;;;;1910587;75;20145;-78
2021/06/12 10:50:27;;;;;;;5.97;2.33;;;;;;;;;;1909670;75;20499;-78
2021/06/12 10:52:54;;;;;;;3.53;2.45;;;;;;;;;;1913056;75;20084;-78
2021/06/12 10:55:38;;;;;;;4.97;2.28;;;;;;;;;;1913662;75;20125;-77
2021/06/12 10:58:32;;;;;;;4.55;2.20;;;;;;;;;;1913227;75;20083;-78
2021/06/12 11:01:14;;;;;;;5.13;2.70;;;;;;;;;;1913607;75;20395;-77
2021/06/12 11:06:35;;;;;;;5.88;2.50;;;;;;;;;;1913619;75;20083;-77
2021/06/12 11:09:12;;;;;;;6.80;2.92;;;;;;;;;;1913223;75;20133;-78
2021/06/12 11:11:38;;;;;;;5.07;2.42;;;;;;;;;;1913405;75;20103;-78
2021/06/12 11:17:12;;;;;;;7.00;2.55;;;;;;;;;;1921401;67;20076;-83
2021/06/12 11:19:40;;;;;;;6.90;2.60;;;;;;;;;;1912945;75;20419;-81
2021/06/12 11:22:32;;;;;;;9.00;2.60;;;;;;;;;;1915981;75;20079;-83
2021/06/12 11:25:07;;;;;;;5.03;2.70;;;;;;;;;;1915369;75;20461;-81
2021/06/12 11:27:34;;;;;;;14.32;2.30;;;;;;;;;;1912482;75;20098;-81
2021/06/12 11:30:22;;;;;;;15.38;2.15;;;;;;;;;;1914988;75;20076;-79
2021/06/12 11:32:47;;;;;;;6.63;2.53;;;;;;;;;;1914148;75;20083;-78
2021/06/12 11:35:52;;;;;;;7.28;2.75;;;;;;;;;;1911275;75;20391;-81
2021/06/12 11:38:32;;;;;;;4.18;2.60;;;;;;;;;;1913549;75;20372;-82
2021/06/12 11:40:59;;;;;;;7.72;2.20;;;;;;;;;;1913992;75;20097;-80
2021/06/12 11:43:51;;;;;;;5.40;2.00;;;;;;;;;;1914454;75;20083;-83
2021/06/12 11:46:29;;;;;;;7.47;2.55;;;;;;;;;;1913883;75;20509;-78
2021/06/12 11:48:57;;;;;;;4.45;2.03;;;;;;;;;;1913889;75;20084;-81
2021/06/12 11:51:32;;;;;;;5.18;2.20;;;;;;;;;;1914508;75;20080;-81
2021/06/12 11:54:17;;;;;;;5.50;2.15;;;;;;;;;;1914575;75;20086;-82
2021/06/12 11:56:47;;;;;;;4.45;2.03;;;;;;;;;;1914406;75;20084;-82
2021/06/12 11:59:15;;;;;;;6.93;2.47;;;;;;;;;;1915153;75;20380;-81
2021/06/12 12:01:43;;;;;;;6.13;2.10;;;;;;;;;;1911649;75;20091;-82
2021/06/12 12:04:20;;;;;;;7.50;2.38;;;;;;;;;;1913454;75;20511;-82
2021/06/12 12:06:52;;;;;;;4.53;1.95;;;;;;;;;;1913543;75;20083;-82
2021/06/12 12:09:23;;;;;;;6.50;2.15;;;;;;;;;;1911701;75;20140;-82
2021/06/12 12:12:09;;;;;;;5.70;1.95;;;;;;;;;;1914043;75;20107;-80
2021/06/12 12:14:38;;;;;;;4.85;2.20;;;;;;;;;;1914093;75;20076;-79
2021/06/12 12:17:27;;;;;;;10.32;2.30;;;;;;;;;;1913885;75;20514;-80
2021/06/12 12:20:09;;;;;;;6.55;2.08;;;;;;;;;;1914880;75;20099;-80
2021/06/12 12:22:45;;;;;;;6.88;1.77;;;;;;;;;;1915812;75;20155;-81
2021/06/12 12:25:12;;;;;;;5.47;2.08;;;;;;;;;;1912131;75;20403;-81
2021/06/12 12:27:38;;;;;;;7.40;2.25;;;;;;;;;;1914240;75;20094;-81
2021/06/12 12:30:06;;;;;;;10.38;2.17;;;;;;;;;;1915576;75;20139;-80
2021/06/12 12:32:32;;;;;;;9.98;1.83;;;;;;;;;;1915211;75;20084;-79
2021/06/12 12:35:17;;;;;;;7.68;2.03;;;;;;;;;;1914074;75;20140;-81
2021/06/12 12:37:43;;;;;;;4.65;1.45;;;;;;;;;;1912138;75;20105;-84
2021/06/12 12:40:29;;;;;;;8.95;1.75;;;;;;;;;;1914753;75;20556;-82
2021/06/12 12:43:04;;;;;;;7.35;1.80;;;;;;;;;;1914290;75;20083;-83
2021/06/12 12:45:31;;;;;;;6.00;1.98;;;;;;;;;;1914155;75;20079;-81
2021/06/12 12:47:57;;;;;;;3.63;1.58;;;;;;;;;;1911220;75;20106;-81
2021/06/12 12:50:23;;;;;;;7.05;1.98;;;;;;;;;;1915142;75;20079;-81
2021/06/12 12:53:02;;;;;;;6.28;1.58;;;;;;;;;;1916054;75;20128;-80
2021/06/12 12:55:27;;;;;;;4.85;1.83;;;;;;;;;;1913924;75;20087;-81
2021/06/12 12:57:53;;;;;;;5.40;1.90;;;;;;;;;;1910975;75;20137;-83
2021/06/12 13:00:18;;;;;;;5.68;2.05;;;;;;;;;;1913931;75;20086;-82
2021/06/12 13:02:44;;;;;;;5.35;1.80;;;;;;;;;;1911306;75;20095;-83
2021/06/12 13:05:14;;;;;;;9.88;2.20;;;;;;;;;;1914222;75;20080;-83
2021/06/12 13:07:40;;;;;;;7.00;1.85;;;;;;;;;;1914741;75;20091;-80
2021/06/12 13:10:14;;;;;;;11.52;2.25;;;;;;;;;;1913981;75;20090;-80
2021/06/12 13:12:40;;;;;;;7.55;1.42;;;;;;;;;;1915119;75;20103;-81
2021/06/12 13:15:08;;;;;;;6.20;1.88;;;;;;;;;;1911931;75;20511;-81
2021/06/12 13:17:35;;;;;;;7.10;1.70;;;;;;;;;;1914386;75;20088;-81
2021/06/12 13:20:06;;;;;;;5.32;1.50;;;;;;;;;;1914930;75;20513;-82
2021/06/12 13:22:41;;;;;;;4.03;1.17;;;;;;;;;;1915153;75;20629;-81
2021/06/12 13:25:06;;;;;;;4.93;1.92;;;;;;;;;;1914872;75;20080;-81
2021/06/12 13:27:34;;;;;;;6.05;1.70;;;;;;;;;;1914381;75;20095;-80
2021/06/12 13:30:00;;;;;;;13.13;2.28;;;;;;;;;;1915098;75;20080;-81
2021/06/12 13:32:29;;;;;;;7.53;1.55;;;;;;;;;;1914343;75;20087;-82
2021/06/12 13:34:56;;;;;;;5.18;1.08;;;;;;;;;;1914742;75;20076;-81
2021/06/12 13:37:22;;;;;;;5.35;1.40;;;;;;;;;;1914703;75;20091;-82
2021/06/12 13:39:55;;;;;;;6.75;1.42;;;;;;;;;;1914443;75;20099;-82
2021/06/12 13:42:21;;;;;;;6.35;1.83;;;;;;;;;;1911326;75;20094;-83
2021/06/12 13:45:12;;;;;;;5.28;1.30;;;;;;;;;;1912850;75;20071;-80
2021/06/12 13:47:38;;;;;;;9.35;2.08;;;;;;;;;;1912573;75;20095;-84
2021/06/12 13:50:06;;;;;;;4.22;1.45;;;;;;;;;;1914474;75;20083;-82
2021/06/12 13:52:33;;;;;;;8.77;1.73;;;;;;;;;;1911236;75;20083;-82
2021/06/12 13:54:58;;;;;;;6.70;1.40;;;;;;;;;;1914698;75;20514;-81
2021/06/12 13:57:24;;;;;;;7.45;1.38;;;;;;;;;;1914563;75;20083;-82
2021/06/12 13:59:49;;;;;;;2.97;1.23;;;;;;;;;;1914368;75;20076;-81
2021/06/12 14:02:15;;;;;;;7.22;2.35;;;;;;;;;;1914942;75;20094;-83
2021/06/12 14:04:40;;;;;;;6.07;1.55;;;;;;;;;;1912503;75;20082;-83
2021/06/12 14:07:06;;;;;;;12.60;2.22;;;;;;;;;;1915389;75;20149;-82
2021/06/12 14:09:33;;;;;;;10.38;2.65;;;;;;;;;;1914534;75;20485;-83
2021/06/12 14:11:59;;;;;;;8.85;1.95;;;;;;;;;;1911404;75;20088;-82
2021/06/12 14:14:25;;;;;;;6.85;2.45;;;;;;;;;;1914956;75;20136;-83
2021/06/12 14:16:51;;;;;;;13.57;4.35;;;;;;;;;;1989143;67;20084;-85
2021/06/12 14:19:16;;;;;;;7.70;2.67;;;;;;;;;;1913003;75;20090;-84
2021/06/12 14:21:41;;;;;;;5.45;1.30;;;;;;;;;;1909226;75;20154;-83
2021/06/12 14:24:10;;;;;;;8.43;2.20;;;;;;;;;;1912320;75;20088;-82
2021/06/12 14:26:35;;;;;;;9.45;3.85;;;;;;;;;;1909480;75;20480;-82
2021/06/12 14:29:00;;;;;;;3.55;1.52;;;;;;;;;;1909472;75;20101;-82
2021/06/12 14:31:26;;;;;;;8.90;1.65;;;;;;;;;;1912101;75;20095;-84
2021/06/12 14:33:51;;;;;;;6.93;1.95;;;;;;;;;;1911369;75;20543;-80
2021/06/12 14:36:16;;;;;;;4.55;1.30;;;;;;;;;;1911391;75;20099;-81
2021/06/12 14:38:42;;;;;;;11.40;3.17;;;;;;;;;;1908547;75;20534;-79
2021/06/12 14:41:10;;;;;;;4.85;0.88;;;;;;;;;;1911923;75;20068;-81